Bryan's Hourly Summary for Friday, July 6, 2018
Hour Temp
(f)
RH
(%)
Solar Rad.
(MJ/m2)
Rainfall
(in)
Wind
(mph)
7/6/2018 12:00 AM 77 89 0 0 0.19
7/6/2018 1:00 AM 76 89 0 0 0
7/6/2018 2:00 AM 76 87 0 0 0.02
7/6/2018 3:00 AM 76 87 0 0 0.76
7/6/2018 4:00 AM 76 87 0 0 0
7/6/2018 5:00 AM 75 89 0 0 0
7/6/2018 6:00 AM 74 91 0 0 0
7/6/2018 7:00 AM 73 93 0.04 0 0.03
7/6/2018 8:00 AM 75 87 0.47 0 2.12
7/6/2018 9:00 AM 78 78 1.1 0 5.79
7/6/2018 10:00 AM 81 68 1.88 0 4.8
7/6/2018 11:00 AM 84 60 2.56 0 5.45
7/6/2018 12:00 PM 87 53 3.06 0 4.77
7/6/2018 1:00 PM 89 45 3.27 0 5.48
7/6/2018 2:00 PM 91 34 3.85 0 5.65
7/6/2018 3:00 PM 93 33 3.44 0 7.08
7/6/2018 4:00 PM 94 29 3.3 0 8.21
7/6/2018 5:00 PM 94 31 2.41 0 8.16
7/6/2018 6:00 PM 93 34 1.23 0 6.4
7/6/2018 7:00 PM 90 39 0.33 0 7.02
7/6/2018 8:00 PM 81 62 0.11 0 6.79
7/6/2018 9:00 PM 79 71 0.01 0 1.46
7/6/2018 10:00 PM 79 73 0 0 0.03
7/6/2018 11:00 PM 77 78 0 0 0.06
Data Summary 82 66 27.06 0.00 3.34